createdAt,value
2019-01-27T00:00:32.951Z,43.40
2019-01-27T00:03:01.940Z,49.30
2019-01-27T00:05:31.181Z,46.10
2019-01-27T00:08:00.342Z,52.63
2019-01-27T00:10:34.162Z,48.80
2019-01-27T00:13:03.360Z,49.50
2019-01-27T00:15:32.901Z,49.77
2019-01-27T00:18:03.843Z,52.93
2019-01-27T00:20:33.143Z,52.47
2019-01-27T00:23:02.741Z,53.40
2019-01-27T00:25:32.082Z,51.47
2019-01-27T00:28:01.763Z,48.87
2019-01-27T00:30:31.040Z,49.80
2019-01-27T00:33:00.802Z,51.90
2019-01-27T00:35:29.981Z,63.73
2019-01-27T00:37:59.339Z,58.33
2019-01-27T00:40:28.801Z,56.00
2019-01-27T00:43:05.979Z,55.33
2019-01-27T00:45:35.202Z,55.23
2019-01-27T00:48:05.246Z,57.80
2019-01-27T00:50:36.505Z,56.33
2019-01-27T00:53:05.861Z,55.63
2019-01-27T00:55:35.220Z,53.90
2019-01-27T00:58:04.501Z,57.00
2019-01-27T01:00:33.980Z,56.17
2019-01-27T01:03:07.061Z,57.17
2019-01-27T01:05:36.620Z,57.27
2019-01-27T01:08:10.939Z,63.40
2019-01-27T01:10:40.320Z,57.83
2019-01-27T01:15:59.047Z,112.97
2019-01-27T01:18:28.466Z,78.97
2019-01-27T01:20:58.130Z,72.20
2019-01-27T01:23:27.575Z,57.47
2019-01-27T01:25:57.066Z,48.67
2019-01-27T01:28:26.516Z,51.73
2019-01-27T01:30:55.836Z,52.40
2019-01-27T01:33:24.835Z,52.60
2019-01-27T01:35:53.936Z,48.70
2019-01-27T01:38:23.063Z,50.70
2019-01-27T01:40:52.620Z,48.73
2019-01-27T01:43:22.196Z,53.53
2019-01-27T01:45:51.416Z,52.90
2019-01-27T01:48:20.717Z,49.63
2019-01-27T01:50:50.037Z,52.67
2019-01-27T01:53:25.157Z,63.00
2019-01-27T01:55:54.565Z,55.73
2019-01-27T01:58:24.044Z,48.20
2019-01-27T02:00:56.301Z,49.63
2019-01-27T02:03:25.506Z,51.80
2019-01-27T02:05:59.843Z,53.27
2019-01-27T02:08:29.083Z,57.60
2019-01-27T02:10:58.501Z,54.50
2019-01-27T02:13:28.022Z,50.77
2019-01-27T02:16:01.022Z,52.33
2019-01-27T02:18:30.402Z,51.27
2019-01-27T02:20:59.762Z,55.43
2019-01-27T02:23:27.642Z,49.23
2019-01-27T02:25:57.081Z,49.70
2019-01-27T02:28:26.523Z,54.27
2019-01-27T02:31:00.104Z,58.37
2019-01-27T02:33:29.663Z,51.93
2019-01-27T02:35:58.964Z,51.53
2019-01-27T02:38:28.444Z,41.67
2019-01-27T02:40:57.922Z,41.93
2019-01-27T02:43:27.342Z,38.93
2019-01-27T02:45:56.680Z,30.67
2019-01-27T02:48:26.222Z,26.97
2019-01-27T02:50:55.342Z,29.83
2019-01-27T02:53:24.483Z,24.17
2019-01-27T02:55:53.902Z,23.97
2019-01-27T02:58:23.603Z,23.13
2019-01-27T03:00:53.061Z,25.13
2019-01-27T03:03:27.960Z,36.67
2019-01-27T03:05:58.720Z,42.47
2019-01-27T03:08:29.377Z,37.87
2019-01-27T03:11:00.457Z,33.13
2019-01-27T03:13:29.917Z,32.63
2019-01-27T03:15:59.016Z,38.53
2019-01-27T03:18:28.255Z,42.77
2019-01-27T03:20:57.597Z,47.33
2019-01-27T03:23:26.705Z,50.30
2019-01-27T03:25:57.459Z,49.43
2019-01-27T03:28:35.649Z,49.37
2019-01-27T03:31:05.279Z,40.90
2019-01-27T03:33:34.616Z,44.20
2019-01-27T03:36:06.221Z,46.03
2019-01-27T03:38:35.778Z,51.50
2019-01-27T03:41:05.516Z,47.53
2019-01-27T03:43:35.315Z,52.80
2019-01-27T03:46:05.256Z,45.00
2019-01-27T03:48:34.598Z,55.53
2019-01-27T03:51:03.660Z,48.47
2019-01-27T03:53:32.757Z,46.40
2019-01-27T03:56:02.182Z,44.20
2019-01-27T03:58:31.559Z,36.17
2019-01-27T04:01:01.064Z,38.23
2019-01-27T04:03:30.223Z,46.30
2019-01-27T04:05:59.343Z,42.10
2019-01-27T04:08:29.123Z,37.60
2019-01-27T04:10:58.423Z,44.77
2019-01-27T04:13:27.988Z,42.47
2019-01-27T04:15:57.162Z,41.47
2019-01-27T04:18:26.547Z,43.57
2019-01-27T04:20:55.983Z,42.50
2019-01-27T04:23:25.622Z,40.40
2019-01-27T04:25:55.201Z,42.17
2019-01-27T04:28:26.561Z,49.90
2019-01-27T04:30:55.882Z,47.00
2019-01-27T04:33:25.103Z,40.13
2019-01-27T04:35:54.682Z,45.33
2019-01-27T04:38:24.002Z,48.60
2019-01-27T04:40:53.782Z,44.87
2019-01-27T04:43:22.946Z,51.70
2019-01-27T04:45:51.982Z,52.20
2019-01-27T04:48:21.437Z,48.53
2019-01-27T04:50:50.557Z,48.40
2019-01-27T04:53:39.197Z,50.00
2019-01-27T04:56:08.318Z,50.90
2019-01-27T04:58:37.716Z,64.13
2019-01-27T05:01:07.639Z,54.10
2019-01-27T05:03:41.123Z,51.17
2019-01-27T05:06:10.483Z,48.77
2019-01-27T05:08:39.743Z,41.73
2019-01-27T05:11:08.819Z,39.53
2019-01-27T05:13:38.247Z,42.97
2019-01-27T05:16:31.919Z,38.53
2019-01-27T05:19:01.761Z,39.17
2019-01-27T05:21:31.140Z,38.40
2019-01-27T05:24:01.082Z,38.37
2019-01-27T05:26:30.401Z,41.90
2019-01-27T05:29:00.020Z,39.43
2019-01-27T05:31:30.140Z,42.27
2019-01-27T05:33:59.657Z,35.87
2019-01-27T05:36:30.699Z,39.87
2019-01-27T05:38:59.839Z,38.77
2019-01-27T05:41:28.900Z,40.80
2019-01-27T05:43:58.657Z,41.47
2019-01-27T05:46:28.139Z,42.13
2019-01-27T05:48:57.319Z,42.77
2019-01-27T05:51:26.730Z,42.83
2019-01-27T05:53:55.738Z,43.30
2019-01-27T05:56:25.479Z,52.83
2019-01-27T05:58:55.034Z,46.90
2019-01-27T06:01:24.342Z,48.17
2019-01-27T06:03:53.904Z,46.33
2019-01-27T06:06:23.363Z,44.20
2019-01-27T06:08:52.796Z,50.67
2019-01-27T06:11:23.117Z,48.17
2019-01-27T06:13:52.904Z,55.00
2019-01-27T06:16:22.296Z,42.93
2019-01-27T06:18:51.857Z,48.67
2019-01-27T06:21:20.964Z,51.93
2019-01-27T06:23:50.337Z,57.00
2019-01-27T06:26:19.916Z,53.40
2019-01-27T06:28:48.896Z,49.47
2019-01-27T06:31:18.128Z,48.17
2019-01-27T06:33:49.018Z,50.60
2019-01-27T06:36:18.239Z,52.33
2019-01-27T06:38:47.996Z,50.77
2019-01-27T06:41:17.120Z,51.67
2019-01-27T06:43:46.396Z,50.50
2019-01-27T06:46:15.856Z,53.77
2019-01-27T06:48:45.176Z,57.17
2019-01-27T06:51:14.256Z,47.20
2019-01-27T06:53:43.997Z,45.03
2019-01-27T06:56:13.436Z,42.50
2019-01-27T06:59:09.776Z,46.17
2019-01-27T07:01:46.142Z,45.63
2019-01-27T07:04:20.241Z,44.90
2019-01-27T07:06:51.400Z,45.43
2019-01-27T07:09:34.702Z,48.13
2019-01-27T07:12:05.441Z,47.63
2019-01-27T07:14:41.639Z,45.40
2019-01-27T07:17:15.201Z,46.60
2019-01-27T07:20:02.381Z,45.73
2019-01-27T07:22:32.982Z,47.20
2019-01-27T07:25:03.442Z,48.63
2019-01-27T07:27:34.388Z,45.00
2019-01-27T07:30:22.402Z,43.60
2019-01-27T07:35:46.137Z,47.33
2019-01-27T07:38:23.037Z,43.27
2019-01-27T07:41:08.977Z,46.37
2019-01-27T07:43:46.218Z,48.30
2019-01-27T07:46:17.217Z,48.87
2019-01-27T07:48:47.736Z,44.67
2019-01-27T07:51:21.006Z,47.37
2019-01-27T07:53:58.658Z,46.57
2019-01-27T07:56:32.638Z,49.43
2019-01-27T07:59:09.377Z,52.40
2019-01-27T08:01:43.345Z,52.80
2019-01-27T08:04:34.237Z,52.23
2019-01-27T08:07:05.216Z,49.70
2019-01-27T08:09:41.816Z,48.33
2019-01-27T08:12:15.036Z,51.57
2019-01-27T08:14:57.916Z,54.70
2019-01-27T08:17:48.627Z,49.70
2019-01-27T08:20:19.855Z,51.37
2019-01-27T08:26:00.006Z,48.60
2019-01-27T08:28:39.456Z,46.70
2019-01-27T08:31:13.235Z,47.73
2019-01-27T08:33:44.137Z,51.83
2019-01-27T08:36:15.336Z,51.77
2019-01-27T08:38:45.930Z,49.33
2019-01-27T08:41:31.838Z,56.23
2019-01-27T08:44:20.476Z,52.23
2019-01-27T08:46:51.496Z,50.30
2019-01-27T08:49:30.424Z,50.30
2019-01-27T08:52:00.180Z,50.43
2019-01-27T08:54:30.091Z,47.60
2019-01-27T08:56:59.113Z,51.87
2019-01-27T08:59:28.633Z,51.80
2019-01-27T09:02:15.668Z,50.97
2019-01-27T09:04:47.206Z,53.90
2019-01-27T09:07:33.949Z,54.30
2019-01-27T09:10:14.008Z,52.40
2019-01-27T09:12:44.809Z,59.57
2019-01-27T09:15:32.169Z,53.03
2019-01-27T09:18:06.088Z,57.83
2019-01-27T09:20:36.779Z,53.30
2019-01-27T09:23:07.848Z,49.63
2019-01-27T09:25:51.409Z,48.03
2019-01-27T09:28:22.408Z,46.23
2019-01-27T09:30:56.628Z,48.60
2019-01-27T09:33:30.287Z,47.60
2019-01-27T09:36:01.267Z,51.53
2019-01-27T09:38:38.146Z,49.20
2019-01-27T09:41:15.508Z,46.80
2019-01-27T09:43:46.228Z,45.77
2019-01-27T09:46:19.808Z,45.77
2019-01-27T09:48:56.528Z,48.07
2019-01-27T09:51:39.391Z,44.37
2019-01-27T09:54:19.554Z,46.80
2019-01-27T09:56:59.869Z,42.90
2019-01-27T09:59:36.587Z,34.30
2019-01-27T10:02:10.218Z,31.17
2019-01-27T10:04:43.838Z,30.87
2019-01-27T10:07:31.059Z,34.43
2019-01-27T10:10:01.882Z,33.87
2019-01-27T10:12:48.051Z,33.33
2019-01-27T10:15:37.121Z,36.97
2019-01-27T10:18:08.367Z,36.13
2019-01-27T10:20:44.888Z,32.13
2019-01-27T10:23:35.249Z,33.83
2019-01-27T10:26:13.132Z,38.20
2019-01-27T10:28:54.740Z,32.37
2019-01-27T10:31:44.200Z,49.40
2019-01-27T10:34:15.263Z,52.47
2019-01-27T10:36:58.563Z,52.40
2019-01-27T10:39:29.190Z,59.17
2019-01-27T10:42:13.651Z,50.47
2019-01-27T10:44:44.805Z,57.57
2019-01-27T10:47:18.348Z,58.70
2019-01-27T10:50:07.169Z,56.63
2019-01-27T10:52:50.237Z,58.37
2019-01-27T10:55:31.002Z,59.13
2019-01-27T10:58:07.694Z,61.63
2019-01-27T11:00:54.888Z,64.10
2019-01-27T11:03:29.603Z,61.10
2019-01-27T11:06:03.871Z,62.53
2019-01-27T11:08:40.687Z,55.60
2019-01-27T11:11:18.981Z,59.30
2019-01-27T11:13:49.798Z,65.93
2019-01-27T11:16:20.803Z,63.53
2019-01-27T11:19:04.141Z,56.23
2019-01-27T11:21:43.902Z,56.77
2019-01-27T11:24:17.980Z,59.43
2019-01-27T11:27:05.922Z,62.93
2019-01-27T11:29:36.959Z,64.23
2019-01-27T11:32:25.100Z,64.50
2019-01-27T11:35:06.239Z,60.07
2019-01-27T11:37:43.561Z,60.50
2019-01-27T11:40:14.780Z,59.60
2019-01-27T11:42:45.462Z,69.87
2019-01-27T11:45:32.059Z,65.17
2019-01-27T11:48:12.120Z,70.17
2019-01-27T11:50:43.040Z,64.50
2019-01-27T11:56:08.960Z,66.20
2019-01-27T11:58:40.860Z,62.83
2019-01-27T12:01:10.337Z,66.10
2019-01-27T12:03:39.800Z,63.97
2019-01-27T12:06:08.973Z,61.17
2019-01-27T12:08:38.690Z,67.37
2019-01-27T12:11:14.370Z,61.47
2019-01-27T12:13:43.511Z,58.60
2019-01-27T12:16:17.212Z,60.13
2019-01-27T12:18:46.719Z,57.57
2019-01-27T12:21:16.491Z,66.13
2019-01-27T12:23:46.371Z,61.07
2019-01-27T12:26:18.709Z,58.30
2019-01-27T12:28:48.333Z,60.97
2019-01-27T12:31:18.111Z,57.57
2019-01-27T12:33:47.509Z,61.87
2019-01-27T12:36:17.231Z,65.27
2019-01-27T12:38:46.733Z,65.27
2019-01-27T12:41:16.174Z,63.63
2019-01-27T12:43:46.495Z,61.87
2019-01-27T12:46:19.899Z,64.63
2019-01-27T12:48:48.915Z,58.43
2019-01-27T12:51:17.948Z,63.07
2019-01-27T12:53:50.155Z,60.37
2019-01-27T12:56:19.200Z,57.03
2019-01-27T12:58:48.109Z,65.63
2019-01-27T13:01:17.113Z,59.43
2019-01-27T13:03:46.660Z,52.13
2019-01-27T13:06:17.765Z,55.97
2019-01-27T13:08:47.047Z,49.37
2019-01-27T13:11:16.229Z,54.63
2019-01-27T13:13:46.248Z,51.60
2019-01-27T13:16:18.166Z,48.33
2019-01-27T13:18:50.835Z,45.00
2019-01-27T13:21:21.614Z,48.97
2019-01-27T13:23:52.340Z,45.53
2019-01-27T13:26:22.383Z,43.30
2019-01-27T13:28:51.844Z,41.80
2019-01-27T13:31:21.283Z,42.70
2019-01-27T13:33:50.925Z,47.67
2019-01-27T13:36:20.240Z,43.93
2019-01-27T13:38:52.429Z,45.17
2019-01-27T13:41:21.944Z,43.70
2019-01-27T13:43:51.413Z,50.47
2019-01-27T13:46:21.044Z,51.00
2019-01-27T13:48:50.548Z,44.33
2019-01-27T13:51:22.875Z,48.63
2019-01-27T13:53:52.521Z,43.30
2019-01-27T13:56:21.664Z,44.70
2019-01-27T13:58:51.208Z,46.27
2019-01-27T14:01:23.486Z,48.40
2019-01-27T14:03:52.747Z,50.20
2019-01-27T14:06:22.198Z,52.30
2019-01-27T14:08:51.155Z,54.93
2019-01-27T14:11:20.457Z,54.47
2019-01-27T14:13:49.775Z,52.47
2019-01-27T14:16:19.520Z,51.07
2019-01-27T14:18:48.860Z,51.87
2019-01-27T14:21:21.580Z,49.23
2019-01-27T14:23:50.723Z,50.47
2019-01-27T14:26:20.220Z,50.70
2019-01-27T14:28:49.862Z,43.60
2019-01-27T14:31:19.801Z,41.83
2019-01-27T14:33:50.859Z,35.37
2019-01-27T14:36:20.220Z,41.83
2019-01-27T14:38:49.283Z,44.37
2019-01-27T14:41:18.339Z,43.23
2019-01-27T14:43:47.842Z,45.87
2019-01-27T14:46:17.360Z,48.43
2019-01-27T14:48:46.779Z,54.90
2019-01-27T14:51:16.363Z,56.70
2019-01-27T14:53:45.720Z,51.97
2019-01-27T14:56:15.360Z,55.53
2019-01-27T14:58:44.427Z,58.47
2019-01-27T15:01:13.927Z,54.70
2019-01-27T15:03:44.069Z,69.63
2019-01-27T15:06:13.768Z,58.17
2019-01-27T15:08:45.947Z,61.87
2019-01-27T15:11:16.569Z,61.67
2019-01-27T15:13:45.851Z,60.30
2019-01-27T15:16:15.613Z,61.53
2019-01-27T15:18:46.728Z,58.57
2019-01-27T15:21:17.649Z,57.70
2019-01-27T15:23:46.869Z,63.17
2019-01-27T15:26:20.465Z,60.60
2019-01-27T15:28:52.701Z,61.73
2019-01-27T15:31:21.888Z,64.90
2019-01-27T15:33:54.184Z,65.87
2019-01-27T15:36:23.902Z,62.70
2019-01-27T15:38:56.708Z,60.23
2019-01-27T15:41:26.086Z,65.93
2019-01-27T15:43:59.605Z,60.50
2019-01-27T15:46:35.309Z,62.43
2019-01-27T15:49:04.752Z,63.83
2019-01-27T15:51:35.617Z,65.43
2019-01-27T15:54:05.391Z,70.90
2019-01-27T15:56:36.226Z,68.17
2019-01-27T15:59:06.253Z,63.87
2019-01-27T16:01:36.519Z,60.07
2019-01-27T16:04:08.971Z,65.83
2019-01-27T16:06:41.544Z,59.77
2019-01-27T16:09:14.489Z,67.13
2019-01-27T16:11:45.470Z,63.97
2019-01-27T16:14:15.289Z,69.20
2019-01-27T16:16:52.929Z,72.87
2019-01-27T16:19:26.106Z,71.97
2019-01-27T16:21:58.050Z,72.07
2019-01-27T16:24:30.059Z,68.00
2019-01-27T16:26:59.529Z,64.53
2019-01-27T16:29:30.483Z,76.47
2019-01-27T16:32:00.930Z,64.83
2019-01-27T16:34:32.106Z,65.43
2019-01-27T16:37:01.859Z,63.80
2019-01-27T16:39:31.213Z,67.70
2019-01-27T16:42:06.592Z,70.63
2019-01-27T16:44:36.092Z,66.70
2019-01-27T16:47:05.470Z,65.43
2019-01-27T16:49:34.727Z,71.47
2019-01-27T16:52:07.136Z,69.83
2019-01-27T16:54:40.746Z,70.73
2019-01-27T16:57:10.228Z,62.60
2019-01-27T16:59:39.430Z,64.43
2019-01-27T17:02:09.606Z,67.70
2019-01-27T17:04:47.865Z,69.63
2019-01-27T17:07:18.720Z,69.13
2019-01-27T17:09:48.710Z,61.27
2019-01-27T17:12:19.174Z,67.50
2019-01-27T17:14:48.512Z,65.37
2019-01-27T17:17:17.777Z,65.63
2019-01-27T17:19:47.165Z,64.63
2019-01-27T17:22:16.363Z,83.67
2019-01-27T17:24:45.733Z,76.53
2019-01-27T17:27:15.314Z,106.10
2019-01-27T17:29:44.415Z,83.17
2019-01-27T17:32:15.360Z,78.07
2019-01-27T17:34:44.465Z,68.57
2019-01-27T17:37:14.002Z,71.90
2019-01-27T17:39:48.408Z,67.53
2019-01-27T17:42:19.765Z,70.77
2019-01-27T17:44:50.484Z,72.73
2019-01-27T17:47:19.639Z,64.97
2019-01-27T17:49:49.525Z,63.47
2019-01-27T17:52:18.742Z,65.70
2019-01-27T17:54:48.070Z,60.17
2019-01-27T17:57:19.027Z,70.53
2019-01-27T17:59:54.314Z,64.33
2019-01-27T18:02:43.527Z,61.80
2019-01-27T18:05:23.423Z,60.47
2019-01-27T18:07:54.268Z,57.03
2019-01-27T18:10:24.905Z,49.93
2019-01-27T18:13:01.632Z,53.97
2019-01-27T18:15:30.961Z,61.57
2019-01-27T18:18:00.320Z,72.43
2019-01-27T18:20:29.666Z,58.20
2019-01-27T18:22:59.093Z,53.80
2019-01-27T18:25:28.406Z,50.13
2019-01-27T18:27:58.080Z,53.07
2019-01-27T18:30:27.760Z,52.27
2019-01-27T18:32:57.134Z,46.67
2019-01-27T18:35:26.439Z,47.57
2019-01-27T18:37:55.623Z,54.03
2019-01-27T18:40:24.909Z,47.53
2019-01-27T18:42:55.612Z,55.33
2019-01-27T18:45:25.765Z,52.87
2019-01-27T18:47:55.171Z,63.83
2019-01-27T18:50:24.411Z,53.40
2019-01-27T18:52:55.128Z,53.03
2019-01-27T18:55:28.650Z,60.03
2019-01-27T18:58:13.074Z,50.23
2019-01-27T19:00:44.014Z,52.63
2019-01-27T19:03:18.880Z,52.27
2019-01-27T19:06:06.320Z,51.37
2019-01-27T19:08:43.320Z,48.87
2019-01-27T19:11:30.561Z,52.37
2019-01-27T19:14:01.179Z,52.17
2019-01-27T19:16:34.822Z,50.80
2019-01-27T19:19:21.719Z,54.23
2019-01-27T19:21:52.500Z,58.23
2019-01-27T19:24:35.699Z,52.07
2019-01-27T19:27:06.479Z,58.20
2019-01-27T19:29:49.439Z,57.03
2019-01-27T19:32:20.119Z,65.80
2019-01-27T19:34:53.999Z,62.13
2019-01-27T19:37:24.584Z,80.53
2019-01-27T19:39:57.960Z,136.03
2019-01-27T19:42:34.728Z,83.47
2019-01-27T19:45:08.400Z,61.47
2019-01-27T19:47:44.780Z,65.57
2019-01-27T19:50:27.502Z,58.83
2019-01-27T19:53:16.512Z,65.63
2019-01-27T19:55:47.205Z,57.50
2019-01-27T19:58:27.983Z,63.23
2019-01-27T20:01:04.650Z,63.10
2019-01-27T20:03:39.107Z,64.37
2019-01-27T20:06:24.783Z,60.10
2019-01-27T20:09:05.757Z,66.57
2019-01-27T20:11:43.078Z,56.90
2019-01-27T20:14:26.872Z,56.83
2019-01-27T20:17:00.682Z,55.00
2019-01-27T20:19:45.247Z,52.57
2019-01-27T20:22:17.161Z,62.57
2019-01-27T20:24:56.912Z,55.27
2019-01-27T20:27:31.791Z,52.40
2019-01-27T20:30:02.903Z,57.57
2019-01-27T20:32:52.927Z,54.70
2019-01-27T20:35:26.754Z,57.03
2019-01-27T20:38:00.327Z,53.70
2019-01-27T20:40:42.908Z,45.30
2019-01-27T20:45:47.724Z,51.13
2019-01-27T20:48:21.659Z,47.57
2019-01-27T20:50:58.524Z,49.60
2019-01-27T20:53:29.251Z,51.10
2019-01-27T20:56:00.023Z,32.27
2019-01-27T20:58:40.185Z,33.47
2019-01-27T21:01:14.570Z,29.87
2019-01-27T21:03:46.554Z,32.47
2019-01-27T21:06:20.486Z,42.10
2019-01-27T21:08:51.428Z,44.40
2019-01-27T21:11:26.228Z,34.17
2019-01-27T21:14:00.622Z,36.63
2019-01-27T21:16:34.184Z,33.30
2019-01-27T21:19:13.923Z,36.27
2019-01-27T21:21:43.145Z,52.97
2019-01-27T21:24:12.803Z,62.63
2019-01-27T21:26:42.184Z,59.13
2019-01-27T21:29:11.583Z,52.30
2019-01-27T21:31:41.583Z,51.53
2019-01-27T21:34:11.224Z,33.20
2019-01-27T21:36:40.584Z,31.43
2019-01-27T21:39:12.525Z,29.93
2019-01-27T21:41:41.946Z,32.50
2019-01-27T21:44:11.265Z,32.87
2019-01-27T21:46:40.324Z,32.33
2019-01-27T21:49:09.766Z,35.60
2019-01-27T21:51:39.024Z,55.67
2019-01-27T21:54:15.304Z,39.53
2019-01-27T21:56:44.814Z,28.87
2019-01-27T21:59:14.669Z,35.97
2019-01-27T22:01:44.319Z,29.53
2019-01-27T22:04:13.839Z,32.93
2019-01-27T22:06:43.720Z,32.10
2019-01-27T22:09:13.279Z,30.63
2019-01-27T22:11:43.100Z,33.67
2019-01-27T22:14:12.502Z,33.40
2019-01-27T22:16:41.899Z,28.90
2019-01-27T22:19:11.600Z,29.07
2019-01-27T22:21:41.121Z,43.00
2019-01-27T22:24:10.726Z,45.53
2019-01-27T22:26:52.802Z,42.97
2019-01-27T22:29:22.300Z,44.40
2019-01-27T22:31:51.830Z,36.67
2019-01-27T22:34:21.121Z,38.97
2019-01-27T22:36:51.120Z,37.07
2019-01-27T22:39:21.920Z,36.50
2019-01-27T22:41:51.740Z,28.80
2019-01-27T22:44:20.807Z,30.53
2019-01-27T22:46:50.320Z,28.50
2019-01-27T22:49:19.620Z,29.23
2019-01-27T22:51:48.815Z,30.37
2019-01-27T22:54:18.220Z,28.67
2019-01-27T22:56:47.559Z,27.57
2019-01-27T22:59:28.379Z,38.10
2019-01-27T23:01:57.887Z,39.67
2019-01-27T23:04:27.247Z,39.20
2019-01-27T23:06:56.642Z,35.83
2019-01-27T23:09:26.074Z,36.23
2019-01-27T23:11:55.744Z,32.13
2019-01-27T23:14:24.986Z,27.23
2019-01-27T23:16:55.145Z,26.73
2019-01-27T23:19:24.165Z,30.57
2019-01-27T23:21:56.482Z,38.43
2019-01-27T23:24:26.562Z,28.40
2019-01-27T23:26:55.681Z,30.43
2019-01-27T23:29:26.088Z,27.47
2019-01-27T23:31:55.528Z,29.37
2019-01-27T23:34:24.969Z,28.17
2019-01-27T23:36:54.487Z,28.67
2019-01-27T23:39:23.533Z,33.17
2019-01-27T23:41:52.963Z,31.30
2019-01-27T23:44:22.621Z,27.80
2019-01-27T23:46:53.703Z,27.40
2019-01-27T23:49:23.541Z,28.20
2019-01-27T23:51:52.968Z,31.07
2019-01-27T23:54:22.488Z,29.57
2019-01-27T23:56:51.510Z,25.10
2019-01-27T23:59:20.672Z,26.67
